Time;durP1;ratioP1;P1;durP2;ratioP2;P2;SDS_P1;SDS_P2;PMS_P1;PMS_P2;Temp;Humidity;BMP_temperature;BMP_pressure;BME280_temperature;BME280_humidity;BME280_pressure;Samples;Min_cycle;Max_cycle;Signal;HPM_P1;HPM_P2
2021/04/20 00:01:34;;;;;;;3.47;2.07;;;5.60;99.90;;;;;;5047233;28;20047;-76
2021/04/20 00:04:00;;;;;;;9.70;4.33;;;5.70;99.90;;;;;;5046201;28;20147;-76
2021/04/20 00:06:26;;;;;;;3.55;2.35;;;5.70;99.90;;;;;;5046950;28;20021;-76
2021/04/20 00:08:52;;;;;;;6.00;3.43;;;5.80;99.90;;;;;;5055833;28;20297;-77
2021/04/20 00:11:17;;;;;;;7.17;4.10;;;5.90;99.90;;;;;;5058519;28;20040;-78
2021/04/20 00:13:43;;;;;;;7.10;3.60;;;6.00;99.90;;;;;;5058205;28;20355;-75
2021/04/20 00:16:09;;;;;;;4.17;2.57;;;6.00;99.90;;;;;;5048737;28;20036;-75
2021/04/20 00:18:34;;;;;;;5.38;2.97;;;5.90;99.90;;;;;;5044382;28;20112;-78
2021/04/20 00:21:00;;;;;;;17.97;7.20;;;6.00;99.90;;;;;;5041369;28;20032;-75
2021/04/20 00:23:26;;;;;;;6.40;3.25;;;6.00;99.90;;;;;;5053832;28;20024;-75
2021/04/20 00:25:52;;;;;;;13.93;6.28;;;6.00;99.90;;;;;;5054471;28;20028;-76
2021/04/20 00:28:26;;;;;;;8.40;4.00;;;6.00;99.90;;;;;;5055943;28;20032;-76
2021/04/20 00:30:52;;;;;;;11.07;4.85;;;6.10;99.90;;;;;;5053638;28;20021;-76
2021/04/20 00:33:18;;;;;;;3.13;1.80;;;6.10;99.90;;;;;;5051220;28;20026;-75
2021/04/20 00:35:44;;;;;;;1.88;1.08;;;6.00;99.90;;;;;;5042446;28;20116;-75
2021/04/20 00:38:11;;;;;;;2.27;1.47;;;5.90;99.90;;;;;;5044905;28;20033;-78
2021/04/20 00:40:37;;;;;;;4.40;1.20;;;5.70;99.90;;;;;;5046807;28;20440;-75
2021/04/20 00:43:03;;;;;;;3.13;1.50;;;5.70;99.90;;;;;;5047598;28;20099;-75
2021/04/20 00:45:34;;;;;;;5.38;1.90;;;5.50;99.90;;;;;;5055696;28;20040;-75
2021/04/20 00:48:02;;;;;;;4.22;2.55;;;5.50;99.90;;;;;;5054125;28;20095;-75
2021/04/20 00:50:40;;;;;;;7.63;4.25;;;5.50;99.90;;;;;;5047706;28;20383;-76
2021/04/20 00:53:08;;;;;;;11.18;5.85;;;5.50;99.90;;;;;;5053362;28;20025;-75
2021/04/20 00:55:35;;;;;;;12.52;6.22;;;5.50;99.90;;;;;;5053035;28;20028;-77
2021/04/20 00:58:01;;;;;;;11.05;6.10;;;5.50;99.90;;;;;;5045541;28;20040;-76
2021/04/20 01:00:31;;;;;;;8.93;4.28;;;5.60;99.90;;;;;;5052970;28;20034;-76
2021/04/20 01:02:57;;;;;;;18.15;6.72;;;5.60;99.90;;;;;;5058683;28;20029;-76
2021/04/20 01:05:30;;;;;;;14.98;6.95;;;5.70;99.90;;;;;;5068691;28;20036;-75
2021/04/20 01:07:58;;;;;;;14.95;7.75;;;5.70;99.90;;;;;;5035404;28;20021;-76
2021/04/20 01:10:24;;;;;;;10.63;5.72;;;5.80;99.90;;;;;;5041504;28;20419;-75
2021/04/20 01:12:50;;;;;;;13.43;6.75;;;5.90;99.90;;;;;;5054388;28;20324;-76
2021/04/20 01:15:16;;;;;;;13.50;5.07;;;6.00;99.90;;;;;;5048341;28;20033;-75
2021/04/20 01:17:42;;;;;;;8.57;2.67;;;6.00;99.90;;;;;;5057056;28;20091;-76
2021/04/20 01:20:10;;;;;;;6.20;3.35;;;6.00;99.90;;;;;;5053619;28;20029;-75
2021/04/20 01:22:40;;;;;;;9.75;3.78;;;6.00;99.90;;;;;;5060474;28;20031;-75
2021/04/20 01:25:08;;;;;;;5.43;2.88;;;6.00;99.90;;;;;;5053439;28;20094;-75
2021/04/20 01:27:35;;;;;;;7.40;4.25;;;5.90;99.90;;;;;;5050871;28;20112;-75
2021/04/20 01:30:03;;;;;;;10.77;5.80;;;5.90;99.90;;;;;;5049278;28;20029;-75
2021/04/20 01:32:28;;;;;;;5.68;3.45;;;5.80;99.90;;;;;;5043438;28;20086;-76
2021/04/20 01:34:56;;;;;;;7.90;3.22;;;5.90;99.90;;;;;;5063329;28;20119;-75
2021/04/20 01:37:22;;;;;;;6.05;3.53;;;5.90;99.90;;;;;;5050586;28;20365;-76
2021/04/20 01:39:50;;;;;;;9.43;4.53;;;5.90;99.90;;;;;;5054199;28;20068;-75
2021/04/20 01:42:17;;;;;;;3.85;2.03;;;5.90;99.90;;;;;;5052088;28;20021;-75
2021/04/20 01:44:43;;;;;;;1.50;1.23;;;5.80;99.90;;;;;;5033467;28;20044;-77
2021/04/20 01:47:10;;;;;;;9.75;4.25;;;5.70;99.90;;;;;;5044667;28;20026;-75
2021/04/20 01:49:36;;;;;;;3.67;2.22;;;5.70;99.90;;;;;;5064987;28;20013;-75
2021/04/20 01:52:03;;;;;;;13.10;4.93;;;5.60;99.90;;;;;;5054056;28;20025;-75
2021/04/20 01:54:28;;;;;;;;;;;5.60;99.90;;;;;;5035273;28;20025;-76
2021/04/20 01:56:55;;;;;;;1.07;1.00;;;5.60;99.90;;;;;;5050415;28;19923;-75
2021/04/20 01:59:21;;;;;;;1.65;1.02;;;5.50;99.90;;;;;;5061732;28;20021;-75
2021/04/20 02:01:48;;;;;;;1.23;1.13;;;5.40;99.90;;;;;;5054038;28;20110;-77
2021/04/20 02:04:14;;;;;;;1.65;1.48;;;5.30;99.90;;;;;;5052912;28;20114;-75
2021/04/20 02:06:40;;;;;;;6.73;3.83;;;5.30;99.90;;;;;;5054308;28;20029;-75
2021/04/20 02:09:08;;;;;;;7.77;4.27;;;5.30;99.90;;;;;;5064910;28;20021;-75
2021/04/20 02:11:34;;;;;;;16.90;6.65;;;5.40;99.90;;;;;;5054423;28;20021;-75
2021/04/20 02:14:00;;;;;;;7.07;4.07;;;5.40;99.90;;;;;;5065163;28;20090;-75
2021/04/20 02:16:27;;;;;;;7.93;3.90;;;5.50;99.90;;;;;;5043521;28;20304;-76
2021/04/20 02:19:04;;;;;;;23.30;2.10;;;5.50;99.90;;;;;;5041167;28;20052;-75
2021/04/20 02:21:29;;;;;;;;;;;5.60;99.90;;;;;;5044032;28;20067;-75
2021/04/20 02:23:56;;;;;;;6.60;3.37;;;5.60;99.90;;;;;;5051399;28;19944;-75
2021/04/20 02:26:28;;;;;;;6.27;3.53;;;5.60;99.90;;;;;;5049964;28;20261;-75
2021/04/20 02:29:01;;;;;;;6.43;4.00;;;5.60;99.90;;;;;;5052263;28;20262;-76
2021/04/20 02:31:27;;;;;;;10.38;4.05;;;5.60;99.90;;;;;;5053208;28;20053;-75
2021/04/20 02:33:57;;;;;;;5.47;3.13;;;5.60;99.90;;;;;;5052699;28;20028;-75
2021/04/20 02:36:24;;;;;;;7.82;3.72;;;5.60;99.90;;;;;;5043375;28;20116;-76
2021/04/20 02:38:50;;;;;;;2.10;1.55;;;5.60;99.90;;;;;;5042790;28;20049;-75
2021/04/20 02:41:18;;;;;;;7.03;2.63;;;5.50;99.90;;;;;;5053295;28;20059;-75
2021/04/20 02:43:45;;;;;;;9.48;4.22;;;5.50;99.90;;;;;;5049296;28;20095;-74
2021/04/20 02:46:10;;;;;;;;;;;5.50;99.90;;;;;;5044383;28;20029;-75
2021/04/20 02:48:36;;;;;;;8.87;1.83;;;5.40;99.90;;;;;;5040528;28;19955;-75
2021/04/20 02:51:04;;;;;;;3.10;1.20;;;5.30;99.90;;;;;;5050305;28;20033;-75
2021/04/20 02:53:31;;;;;;;3.45;1.65;;;5.30;99.90;;;;;;5053113;28;20052;-75
2021/04/20 02:55:57;;;;;;;3.70;2.20;;;5.30;99.90;;;;;;5043246;28;20051;-74
2021/04/20 02:58:26;;;;;;;5.38;2.40;;;5.30;99.90;;;;;;5051552;28;20115;-75
2021/04/20 03:01:01;;;;;;;3.97;1.95;;;5.20;99.90;;;;;;5051934;28;20032;-75
2021/04/20 03:03:28;;;;;;;1.50;1.13;;;5.10;99.90;;;;;;5038888;28;20040;-74
2021/04/20 03:05:55;;;;;;;1.75;1.30;;;5.00;99.90;;;;;;5052431;28;20320;-75
2021/04/20 03:08:20;;;;;;;1.08;1.00;;;5.00;99.90;;;;;;5045266;28;20056;-75
2021/04/20 03:10:48;;;;;;;0.60;0.60;;;4.90;99.90;;;;;;5054625;28;20435;-74
2021/04/20 03:13:15;;;;;;;1.73;1.00;;;4.90;99.90;;;;;;5039073;28;20022;-75
2021/04/20 03:15:41;;;;;;;;;;;4.80;99.90;;;;;;5046690;28;20082;-75
2021/04/20 03:18:07;;;;;;;2.30;1.17;;;4.80;99.90;;;;;;5051493;28;19913;-75
2021/04/20 03:20:33;;;;;;;4.67;1.87;;;4.70;99.90;;;;;;5055336;28;20446;-76
2021/04/20 03:23:00;;;;;;;4.85;0.98;;;4.60;99.90;;;;;;5054423;28;20029;-75
2021/04/20 03:25:27;;;;;;;1.58;1.33;;;4.60;99.90;;;;;;5043433;28;20412;-75
2021/04/20 03:27:56;;;;;;;4.15;2.00;;;4.60;99.90;;;;;;5055201;28;20471;-75
2021/04/20 03:30:30;;;;;;;4.72;3.00;;;4.50;99.90;;;;;;5041097;28;20424;-75
2021/04/20 03:33:19;;;;;;;5.68;2.95;;;4.50;99.90;;;;;;5045612;28;20029;-75
2021/04/20 03:35:56;;;;;;;5.85;2.50;;;4.50;99.90;;;;;;5039855;28;20112;-74
2021/04/20 03:38:47;;;;;;;2.50;1.75;;;4.50;99.90;;;;;;5050083;28;20041;-75
2021/04/20 03:41:22;;;;;;;3.65;1.40;;;4.40;99.90;;;;;;5052026;28;20110;-76
2021/04/20 03:43:50;;;;;;;2.10;1.55;;;4.40;99.90;;;;;;5044003;28;20453;-76
2021/04/20 03:46:22;;;;;;;4.32;2.10;;;4.40;99.90;;;;;;5053347;28;20044;-75
2021/04/20 03:49:03;;;;;;;9.77;3.53;;;4.30;99.90;;;;;;5038684;28;20025;-75
2021/04/20 03:51:30;;;;;;;18.88;3.92;;;4.30;99.90;;;;;;5057754;28;20408;-75
2021/04/20 03:54:03;;;;;;;11.95;5.63;;;4.40;99.90;;;;;;5053683;28;20025;-75
2021/04/20 03:56:31;;;;;;;20.25;8.77;;;4.50;99.90;;;;;;5037221;28;20048;-75
2021/04/20 03:59:01;;;;;;;18.30;8.23;;;4.50;99.90;;;;;;5055826;28;20045;-75
2021/04/20 04:01:32;;;;;;;20.88;8.95;;;4.70;99.90;;;;;;5054998;28;20028;-75
2021/04/20 04:03:58;;;;;;;20.85;9.52;;;4.70;99.90;;;;;;5042453;28;20025;-76
2021/04/20 04:06:24;;;;;;;21.88;8.98;;;4.90;99.90;;;;;;5056599;28;20384;-75
2021/04/20 04:08:52;;;;;;;19.52;10.25;;;4.90;99.90;;;;;;5054688;28;20017;-75
2021/04/20 04:11:21;;;;;;;14.82;6.93;;;5.00;99.90;;;;;;5050827;28;20069;-75
2021/04/20 04:13:48;;;;;;;12.45;6.10;;;5.10;99.90;;;;;;5054946;28;20488;-75
2021/04/20 04:16:18;;;;;;;14.98;6.50;;;5.10;99.90;;;;;;5056988;28;20027;-75
2021/04/20 04:18:47;;;;;;;22.95;3.63;;;5.00;99.90;;;;;;5058272;28;20416;-75
2021/04/20 04:21:20;;;;;;;9.30;4.68;;;4.90;99.90;;;;;;5051599;28;20072;-75
2021/04/20 04:23:48;;;;;;;11.60;5.40;;;4.90;99.90;;;;;;5056855;28;20024;-76
2021/04/20 04:26:22;;;;;;;14.63;7.30;;;4.90;99.90;;;;;;5055811;28;20033;-76
2021/04/20 04:28:51;;;;;;;23.73;6.80;;;4.80;99.90;;;;;;5048080;28;20021;-75
2021/04/20 04:31:18;;;;;;;8.70;4.93;;;4.80;99.90;;;;;;5048717;28;20025;-75
2021/04/20 04:33:46;;;;;;;14.32;3.78;;;4.70;99.90;;;;;;5049118;28;20903;-75
2021/04/20 04:36:12;;;;;;;16.15;8.07;;;4.80;99.90;;;;;;5051524;28;20029;-76
2021/04/20 04:38:39;;;;;;;12.73;5.93;;;4.70;99.90;;;;;;5045165;28;20021;-75
2021/04/20 04:41:05;;;;;;;;;;;4.70;99.90;;;;;;5055626;28;20063;-76
2021/04/20 04:43:31;;;;;;;11.93;5.85;;;4.70;99.90;;;;;;5039658;28;19909;-75
2021/04/20 04:45:57;;;;;;;19.83;7.72;;;4.60;99.90;;;;;;5057631;28;20040;-75
2021/04/20 04:48:25;;;;;;;7.57;3.63;;;4.60;99.90;;;;;;5052101;28;20033;-76
2021/04/20 04:50:53;;;;;;;12.23;3.65;;;4.50;99.90;;;;;;5062311;28;20021;-76
2021/04/20 04:53:20;;;;;;;8.68;4.15;;;4.40;99.90;;;;;;5052443;28;20025;-76
2021/04/20 04:55:46;;;;;;;14.02;4.72;;;4.40;99.90;;;;;;5053102;28;20052;-76
2021/04/20 04:58:12;;;;;;;17.42;4.65;;;4.40;99.90;;;;;;5053859;28;20061;-76
2021/04/20 05:00:41;;;;;;;9.88;3.67;;;4.40;99.90;;;;;;5046235;28;20026;-75
2021/04/20 05:03:07;;;;;;;10.73;5.20;;;4.50;99.90;;;;;;5056197;28;20041;-76
2021/04/20 05:05:41;;;;;;;5.00;3.33;;;4.80;99.90;;;;;;5036163;28;20029;-77
2021/04/20 05:08:09;;;;;;;7.68;3.70;;;4.80;99.90;;;;;;5046317;28;20028;-77
2021/04/20 05:10:35;;;;;;;18.48;6.80;;;4.80;99.90;;;;;;5051437;28;20040;-77
2021/04/20 05:13:01;;;;;;;5.57;3.90;;;4.80;99.90;;;;;;5050317;28;20021;-76
2021/04/20 05:15:28;;;;;;;5.75;3.17;;;4.80;99.90;;;;;;5055424;28;20033;-76
2021/04/20 05:17:54;;;;;;;;;;;4.80;99.90;;;;;;5048256;28;20190;-77
2021/04/20 05:20:21;;;;;;;5.17;2.33;;;4.80;99.90;;;;;;5043532;28;20284;-76
2021/04/20 05:22:48;;;;;;;6.85;3.72;;;4.80;99.90;;;;;;5054300;28;20029;-76
2021/04/20 05:25:18;;;;;;;5.10;3.10;;;4.60;99.90;;;;;;5050107;28;20026;-77
2021/04/20 05:27:45;;;;;;;3.60;2.58;;;4.60;99.90;;;;;;5051160;28;20691;-80
2021/04/20 05:30:11;;;;;;;4.07;2.47;;;4.60;99.90;;;;;;5044283;28;20021;-76
2021/04/20 05:32:39;;;;;;;7.60;3.00;;;4.70;99.90;;;;;;5053614;28;20319;-76
2021/04/20 05:35:06;;;;;;;13.93;5.78;;;4.70;99.90;;;;;;5052843;28;20243;-76
2021/04/20 05:37:40;;;;;;;5.88;3.15;;;4.80;99.90;;;;;;5044486;28;20393;-76
2021/04/20 05:40:06;;;;;;;13.45;6.65;;;4.90;99.90;;;;;;5050898;28;20498;-76
2021/04/20 05:42:32;;;;;;;11.05;5.28;;;5.10;99.90;;;;;;5038347;28;20097;-76
2021/04/20 05:44:59;;;;;;;14.43;4.57;;;5.20;99.90;;;;;;5048261;28;20411;-75
2021/04/20 05:47:25;;;;;;;16.33;6.72;;;5.30;99.90;;;;;;5050250;28;20350;-77
2021/04/20 05:49:58;;;;;;;13.02;6.15;;;5.40;99.90;;;;;;5039997;28;20033;-76
2021/04/20 05:52:24;;;;;;;17.05;6.28;;;5.50;99.90;;;;;;5043294;28;20319;-76
2021/04/20 05:54:55;;;;;;;13.63;6.17;;;5.60;99.90;;;;;;5044523;28;20133;-77
2021/04/20 05:57:21;;;;;;;9.23;5.00;;;5.70;99.90;;;;;;5035699;28;20030;-76
2021/04/20 05:59:47;;;;;;;11.32;5.20;;;5.80;99.90;;;;;;5045410;28;20293;-76
2021/04/20 06:02:15;;;;;;;12.73;5.70;;;5.90;99.90;;;;;;5055803;28;20029;-76
2021/04/20 06:04:46;;;;;;;10.75;4.97;;;5.90;99.90;;;;;;5040540;28;20028;-77
2021/04/20 06:07:15;;;;;;;10.13;5.55;;;6.00;99.90;;;;;;5042642;28;20025;-76
2021/04/20 06:09:44;;;;;;;16.85;6.32;;;6.10;99.90;;;;;;5049117;28;20071;-76
2021/04/20 06:12:11;;;;;;;10.95;5.35;;;6.20;99.90;;;;;;5051997;28;20021;-76
2021/04/20 06:14:38;;;;;;;15.13;6.10;;;6.30;99.90;;;;;;5052490;28;20402;-76
2021/04/20 06:17:05;;;;;;;;;;;6.40;99.90;;;;;;5053903;28;20055;-76
2021/04/20 06:19:31;;;;;;;11.60;6.50;;;6.60;99.90;;;;;;5048812;28;19999;-76
2021/04/20 06:21:57;;;;;;;17.40;7.13;;;6.70;99.90;;;;;;5058199;28;20116;-76
2021/04/20 06:24:24;;;;;;;23.27;9.87;;;6.80;99.90;;;;;;5050404;28;20033;-76
2021/04/20 06:26:50;;;;;;;21.52;9.50;;;7.00;99.90;;;;;;5047663;28;20101;-76
2021/04/20 06:29:16;;;;;;;25.00;11.80;;;7.20;99.90;;;;;;5049121;28;20032;-81
2021/04/20 06:31:42;;;;;;;27.20;11.37;;;7.50;99.90;;;;;;5049318;28;20033;-75
2021/04/20 06:34:07;;;;;;;37.20;14.52;;;7.70;99.90;;;;;;5053032;28;20033;-76
2021/04/20 06:36:36;;;;;;;34.67;15.23;;;7.90;99.90;;;;;;5043868;28;20104;-76
2021/04/20 06:39:02;;;;;;;33.28;14.18;;;8.10;99.90;;;;;;5055474;28;20029;-76
2021/04/20 06:41:32;;;;;;;35.87;15.33;;;8.40;99.90;;;;;;5054043;28;20056;-76
2021/04/20 06:44:20;;;;;;;32.95;15.00;;;8.70;99.90;;;;;;5038974;28;20411;-76
2021/04/20 06:46:54;;;;;;;35.42;15.15;;;8.80;99.90;;;;;;5014453;28;20033;-76
2021/04/20 06:49:24;;;;;;;35.67;16.17;;;9.00;99.90;;;;;;5037107;28;20478;-75
2021/04/20 06:51:53;;;;;;;36.50;15.27;;;9.20;99.90;;;;;;5066995;28;20023;-78
2021/04/20 06:54:29;;;;;;;35.50;15.05;;;9.40;99.90;;;;;;5048786;28;20021;-76
2021/04/20 06:57:10;;;;;;;30.13;15.13;;;9.70;99.90;;;;;;5054897;28;20039;-75
2021/04/20 06:59:51;;;;;;;40.45;15.38;;;10.00;99.90;;;;;;5049028;28;20087;-75
2021/04/20 07:02:32;;;;;;;35.55;15.15;;;10.30;99.90;;;;;;5049947;28;20147;-75
2021/04/20 07:04:59;;;;;;;38.70;15.38;;;10.70;99.90;;;;;;5070577;28;20032;-79
2021/04/20 07:07:50;;;;;;;35.00;15.73;;;11.00;99.90;;;;;;5044309;28;20028;-77
2021/04/20 07:10:35;;;;;;;33.92;15.77;;;11.30;99.90;;;;;;5052957;28;20025;-76
2021/04/20 07:13:06;;;;;;;32.28;13.52;;;11.80;99.90;;;;;;5058250;28;20021;-75
2021/04/20 07:15:33;;;;;;;33.55;15.18;;;11.90;99.90;;;;;;5053110;28;20036;-76
2021/04/20 07:18:29;;;;;;;29.40;13.70;;;12.00;99.90;;;;;;5058086;28;20032;-76
2021/04/20 07:21:31;;;;;;;29.02;14.95;;;12.10;99.90;;;;;;5051073;28;20041;-75
2021/04/20 07:24:18;;;;;;;34.92;14.57;;;12.30;99.90;;;;;;5065856;28;20219;-76
2021/04/20 07:27:06;;;;;;;29.20;13.40;;;12.40;99.90;;;;;;5053176;28;20021;-76
2021/04/20 07:29:50;;;;;;;33.42;13.35;;;12.60;99.90;;;;;;5050945;28;20082;-80
2021/04/20 07:32:35;;;;;;;29.85;11.80;;;12.90;99.90;;;;;;5050742;28;20021;-75
2021/04/20 07:35:22;;;;;;;22.25;11.43;;;13.10;99.90;;;;;;5074333;28;20081;-75
2021/04/20 07:38:03;;;;;;;37.92;13.30;;;13.30;99.90;;;;;;5059309;28;20042;-75
2021/04/20 07:40:41;;;;;;;22.27;11.70;;;13.60;99.90;;;;;;5054162;28;20376;-74
2021/04/20 07:43:51;;;;;;;28.20;11.65;;;13.60;99.90;;;;;;5036941;28;20029;-75
2021/04/20 07:46:55;;;;;;;28.67;11.82;;;14.00;99.90;;;;;;5056449;28;20068;-74
2021/04/20 07:49:45;;;;;;;23.73;12.48;;;14.30;99.90;;;;;;5038656;28;20029;-75
2021/04/20 07:52:49;;;;;;;26.33;12.27;;;14.50;99.90;;;;;;5057308;28;20112;-78
2021/04/20 07:55:25;;;;;;;21.65;9.45;;;14.30;99.90;;;;;;5052623;28;20335;-76
2021/04/20 07:58:00;;;;;;;25.60;10.80;;;14.30;99.90;;;;;;5053044;28;20087;-76
2021/04/20 08:00:36;;;;;;;24.70;12.05;;;14.70;99.90;;;;;;5057901;28;20416;-75
2021/04/20 08:03:16;;;;;;;24.70;10.98;;;14.70;99.90;;;;;;5057469;28;20047;-77
2021/04/20 08:05:51;;;;;;;23.63;10.40;;;14.70;99.90;;;;;;5063951;28;20023;-78
2021/04/20 08:08:27;;;;;;;22.48;10.52;;;14.70;99.90;;;;;;5065169;28;20124;-75
2021/04/20 08:11:08;;;;;;;20.35;9.65;;;14.80;99.90;;;;;;5051425;28;20028;-77
2021/04/20 08:13:47;;;;;;;20.75;10.43;;;14.80;99.90;;;;;;5045996;28;20108;-78
2021/04/20 08:16:41;;;;;;;22.42;10.73;;;15.00;99.90;;;;;;5050675;28;20573;-77
2021/04/20 08:19:11;;;;;;;21.85;9.32;;;15.70;99.90;;;;;;5058375;28;20024;-75
2021/04/20 08:21:43;;;;;;;19.15;10.15;;;16.10;99.90;;;;;;5061404;28;20025;-75
2021/04/20 08:24:15;;;;;;;22.13;9.57;;;16.10;99.90;;;;;;5051701;28;20033;-77
2021/04/20 08:26:58;;;;;;;19.10;8.77;;;16.40;99.90;;;;;;5056139;28;20312;-77
2021/04/20 08:29:27;;;;;;;18.73;8.63;;;16.90;99.90;;;;;;5043148;28;20017;-78
2021/04/20 08:31:59;;;;;;;19.30;9.10;;;17.20;99.90;;;;;;5059786;28;20059;-78
2021/04/20 08:34:33;;;;;;;18.73;9.30;;;16.90;99.90;;;;;;5066349;28;20638;-78
2021/04/20 08:37:06;;;;;;;14.25;8.38;;;16.40;99.90;;;;;;5056527;28;20021;-78
2021/04/20 08:39:55;;;;;;;18.67;8.05;;;16.10;99.90;;;;;;5047038;28;20048;-78
2021/04/20 08:42:35;;;;;;;18.02;9.38;;;15.80;99.90;;;;;;5051598;28;20297;-78
2021/04/20 08:45:37;;;;;;;22.30;10.57;;;15.70;99.90;;;;;;5051025;28;20024;-80
2021/04/20 08:48:38;;;;;;;20.05;10.93;;;15.50;99.90;;;;;;5050775;28;20408;-79
2021/04/20 08:51:13;;;;;;;23.35;10.52;;;15.30;99.90;;;;;;5053140;28;20031;-78
2021/04/20 08:53:59;;;;;;;20.08;9.95;;;15.30;99.90;;;;;;5057616;28;20017;-79
2021/04/20 08:56:45;;;;;;;21.38;10.15;;;15.20;99.90;;;;;;5055984;28;20041;-75
2021/04/20 08:59:51;;;;;;;20.47;9.43;;;15.20;99.90;;;;;;5050523;28;20036;-75
2021/04/20 09:02:32;;;;;;;19.58;9.57;;;15.20;99.90;;;;;;5050118;28;20388;-79
2021/04/20 09:05:10;;;;;;;24.35;9.70;;;15.30;99.90;;;;;;5053776;28;20028;-78
2021/04/20 09:07:49;;;;;;;22.45;9.88;;;15.50;99.90;;;;;;5051955;28;20063;-79
2021/04/20 09:10:18;;;;;;;18.30;9.95;;;15.50;99.90;;;;;;5048565;28;20033;-77
2021/04/20 09:12:46;;;;;;;20.13;9.77;;;15.40;99.90;;;;;;5052040;28;20024;-80
2021/04/20 09:15:13;;;;;;;19.05;9.05;;;15.30;99.90;;;;;;5051400;28;20112;-78
2021/04/20 09:17:46;;;;;;;16.85;7.75;;;15.30;99.90;;;;;;5052408;28;20435;-78
2021/04/20 09:20:18;;;;;;;15.57;8.30;;;15.50;99.90;;;;;;5047736;28;20080;-75
2021/04/20 09:23:16;;;;;;;15.93;8.25;;;15.50;99.90;;;;;;5052254;28;20029;-79
2021/04/20 09:26:04;;;;;;;15.75;6.45;;;15.70;99.90;;;;;;5043203;28;20033;-81
2021/04/20 09:28:37;;;;;;;15.75;7.55;;;15.80;99.00;;;;;;5052339;28;20450;-81
2021/04/20 09:31:11;;;;;;;14.15;7.85;;;15.90;99.90;;;;;;5049443;28;20530;-79
2021/04/20 09:33:47;;;;;;;17.02;8.48;;;15.80;99.90;;;;;;5057129;28;20645;-77
2021/04/20 09:36:13;;;;;;;17.17;8.05;;;16.00;99.90;;;;;;5052669;28;20296;-79
2021/04/20 09:38:43;;;;;;;18.67;8.65;;;15.90;99.90;;;;;;5042390;28;20044;-77
2021/04/20 09:41:10;;;;;;;14.10;7.20;;;15.90;99.90;;;;;;5054529;28;20335;-78
2021/04/20 09:44:22;;;;;;;18.92;9.38;;;16.00;99.90;;;;;;5038761;28;20028;-78
2021/04/20 09:46:47;;;;;;;21.13;8.50;;;15.90;99.90;;;;;;5049318;28;20048;-77
2021/04/20 09:49:44;;;;;;;16.23;8.13;;;15.90;99.90;;;;;;5035073;28;20021;-78
2021/04/20 09:52:16;;;;;;;18.88;9.32;;;15.90;99.90;;;;;;5037012;28;20024;-79
2021/04/20 09:54:52;;;;;;;14.95;6.35;;;15.90;99.90;;;;;;5038730;28;20707;-78
2021/04/20 09:57:21;;;;;;;20.33;8.15;;;16.00;99.60;;;;;;5050668;28;20025;-80
2021/04/20 09:59:53;;;;;;;16.23;7.95;;;16.00;99.90;;;;;;5035248;28;20558;-74
2021/04/20 10:02:41;;;;;;;17.35;8.98;;;16.10;99.70;;;;;;5033253;28;20175;-78
2021/04/20 10:05:22;;;;;;;18.05;9.05;;;16.10;99.90;;;;;;5053182;28;20090;-74
2021/04/20 10:08:09;;;;;;;15.05;8.45;;;16.30;99.90;;;;;;5054010;28;20040;-77
2021/04/20 10:10:42;;;;;;;20.42;8.63;;;16.50;99.90;;;;;;5032952;28;20075;-80
2021/04/20 10:13:25;;;;;;;25.50;11.30;;;16.60;99.90;;;;;;5060791;28;20499;-77
2021/04/20 10:16:18;;;;;;;21.35;11.15;;;16.30;99.90;;;;;;5029057;28;20105;-80
2021/04/20 10:19:08;;;;;;;24.75;11.27;;;16.10;99.90;;;;;;5043831;28;20048;-77
2021/04/20 10:21:43;;;;;;;25.13;10.95;;;15.90;99.90;;;;;;5056025;28;20032;-79
2021/04/20 10:24:19;;;;;;;29.02;12.65;;;16.00;99.90;;;;;;5040052;28;20317;-78
2021/04/20 10:26:56;;;;;;;24.27;9.75;;;16.00;99.90;;;;;;5040428;28;20190;-78
2021/04/20 10:29:24;;;;;;;18.92;9.48;;;15.60;99.90;;;;;;5046145;28;20103;-79
2021/04/20 10:32:15;;;;;;;24.38;11.13;;;15.60;99.90;;;;;;5061221;28;20024;-77
2021/04/20 10:34:53;;;;;;;23.73;10.30;;;15.90;99.90;;;;;;5063491;28;20029;-79
2021/04/20 10:37:29;;;;;;;24.48;10.65;;;15.70;99.90;;;;;;5054040;28;20323;-78
2021/04/20 10:39:56;;;;;;;23.00;10.75;;;15.50;99.90;;;;;;5056732;28;20497;-79
2021/04/20 10:42:30;;;;;;;22.27;9.90;;;15.50;99.90;;;;;;5032755;28;20470;-79
2021/04/20 10:44:58;;;;;;;24.77;9.85;;;15.40;99.90;;;;;;5042684;28;20098;-78
2021/04/20 10:47:26;;;;;;;22.13;10.18;;;15.30;99.90;;;;;;5035867;28;20029;-77
2021/04/20 10:49:53;;;;;;;22.67;9.55;;;15.40;99.90;;;;;;5044736;28;20013;-80
2021/04/20 10:52:21;;;;;;;25.88;11.15;;;15.50;99.90;;;;;;5064749;28;20147;-78
2021/04/20 10:54:49;;;;;;;18.63;9.55;;;15.40;99.90;;;;;;5037177;28;20044;-77
2021/04/20 10:57:15;;;;;;;21.10;10.40;;;15.80;99.90;;;;;;5056823;28;20353;-78
2021/04/20 10:59:50;;;;;;;22.02;9.80;;;15.50;99.90;;;;;;5051884;28;20025;-78
2021/04/20 11:02:22;;;;;;;19.20;8.18;;;15.60;99.90;;;;;;5048755;28;20039;-80
2021/04/20 11:04:51;;;;;;;25.27;9.63;;;15.50;99.90;;;;;;5055474;28;20086;-78
2021/04/20 11:07:18;;;;;;;22.05;8.90;;;15.40;99.90;;;;;;5060227;28;20025;-77
2021/04/20 11:09:44;;;;;;;21.70;9.80;;;15.30;99.90;;;;;;5053501;28;20018;-79
2021/04/20 11:12:18;;;;;;;;;;;15.50;99.90;;;;;;5045258;28;20442;-80
2021/04/20 11:14:50;;;;;;;21.63;9.48;;;15.40;99.90;;;;;;5037028;28;19908;-78
2021/04/20 11:17:38;;;;;;;23.27;9.10;;;15.40;99.90;;;;;;5045463;28;20020;-77
2021/04/20 11:20:11;;;;;;;21.45;9.00;;;15.20;99.90;;;;;;5052847;28;20332;-75
2021/04/20 11:22:41;;;;;;;16.52;8.10;;;15.00;99.90;;;;;;5044375;28;20058;-77
2021/04/20 11:25:19;;;;;;;18.77;8.80;;;14.90;99.90;;;;;;5055993;28;20033;-77
2021/04/20 11:27:48;;;;;;;27.58;11.55;;;15.00;99.90;;;;;;5048334;28;20364;-80
2021/04/20 11:30:16;;;;;;;21.30;10.00;;;15.00;99.90;;;;;;5050241;28;20028;-77
2021/04/20 11:32:48;;;;;;;18.10;7.15;;;14.90;99.90;;;;;;5063583;28;20016;-75
2021/04/20 11:35:18;;;;;;;20.88;8.80;;;14.70;99.90;;;;;;5046320;28;20025;-77
2021/04/20 11:37:46;;;;;;;20.60;10.23;;;14.50;99.90;;;;;;5057937;28;20051;-77
2021/04/20 11:40:27;;;;;;;18.70;7.78;;;14.50;99.90;;;;;;5054752;28;20124;-77
2021/04/20 11:42:55;;;;;;;20.77;10.18;;;14.60;99.90;;;;;;5060169;28;20036;-80
2021/04/20 11:45:25;;;;;;;17.95;8.35;;;14.70;99.90;;;;;;5048467;28;20032;-78
2021/04/20 11:47:59;;;;;;;15.25;7.40;;;14.70;99.90;;;;;;5033762;28;20361;-83
2021/04/20 11:50:28;;;;;;;17.52;8.95;;;14.90;99.90;;;;;;5052545;28;20043;-75
2021/04/20 11:53:00;;;;;;;21.35;9.88;;;14.80;99.90;;;;;;5060441;28;20025;-74
2021/04/20 11:55:35;;;;;;;16.65;7.25;;;15.10;99.90;;;;;;5050148;28;20033;-80
2021/04/20 11:58:03;;;;;;;13.85;7.63;;;15.10;99.90;;;;;;5044803;28;20416;-74
2021/04/20 12:00:30;;;;;;;22.38;8.75;;;15.20;99.90;;;;;;5033962;28;20400;-73
2021/04/20 12:02:56;;;;;;;16.67;7.60;;;15.40;99.90;;;;;;5058245;28;20048;-76
2021/04/20 12:05:24;;;;;;;15.52;7.78;;;15.50;99.90;;;;;;5067796;28;20033;-80
2021/04/20 12:07:50;;;;;;;17.30;7.88;;;15.60;99.90;;;;;;5050155;28;20021;-73
2021/04/20 12:10:18;;;;;;;14.95;6.63;;;15.70;99.90;;;;;;5036016;28;20420;-76
2021/04/20 12:12:50;;;;;;;19.50;9.10;;;15.70;99.90;;;;;;5055383;28;20036;-80
2021/04/20 12:15:17;;;;;;;21.20;8.60;;;15.80;99.90;;;;;;5059286;28;20029;-75
2021/04/20 12:17:45;;;;;;;16.30;7.30;;;15.80;99.90;;;;;;5051742;28;20107;-79
2021/04/20 12:20:18;;;;;;;17.95;8.50;;;15.70;99.90;;;;;;5056082;28;20043;-75
2021/04/20 12:22:45;;;;;;;14.60;6.75;;;15.60;99.90;;;;;;5052855;28;20323;-80
2021/04/20 12:25:16;;;;;;;16.50;8.95;;;15.50;99.90;;;;;;5054545;28;20027;-78
2021/04/20 12:27:41;;;;;;;19.10;9.23;;;15.20;99.90;;;;;;5064006;28;20116;-76
2021/04/20 12:30:12;;;;;;;15.97;7.50;;;15.10;99.90;;;;;;5041031;28;20100;-75
2021/04/20 12:32:38;;;;;;;17.92;8.88;;;15.10;99.90;;;;;;5057085;28;20052;-74
2021/04/20 12:35:04;;;;;;;13.87;7.63;;;14.90;99.90;;;;;;5045948;28;20343;-79
2021/04/20 12:37:33;;;;;;;14.75;7.78;;;14.90;99.90;;;;;;5041491;28;20293;-76
2021/04/20 12:40:08;;;;;;;18.13;9.55;;;14.80;99.90;;;;;;5060863;28;20040;-79
2021/04/20 12:42:39;;;;;;;16.80;7.77;;;14.80;99.90;;;;;;5047667;28;20373;-79
2021/04/20 12:45:10;;;;;;;17.55;9.30;;;14.70;99.90;;;;;;5052922;28;20028;-79
2021/04/20 12:47:37;;;;;;;19.35;8.48;;;14.70;99.90;;;;;;5059189;28;20419;-74
2021/04/20 12:50:07;;;;;;;17.45;8.75;;;15.00;99.90;;;;;;5038379;28;20416;-75
2021/04/20 12:52:33;;;;;;;16.77;6.63;;;15.20;99.90;;;;;;5050402;28;20032;-80
2021/04/20 12:55:04;;;;;;;17.85;9.00;;;15.60;99.90;;;;;;5068720;28;20024;-77
2021/04/20 12:57:40;;;;;;;16.70;9.07;;;15.80;99.90;;;;;;5050309;28;21125;-75
2021/04/20 13:00:19;;;;;;;20.10;8.30;;;15.80;99.90;;;;;;5056861;28;20035;-79
2021/04/20 13:02:49;;;;;;;20.05;8.95;;;15.70;99.90;;;;;;5064100;28;20360;-79
2021/04/20 13:05:19;;;;;;;19.02;9.07;;;15.70;99.90;;;;;;5053820;28;20025;-79
2021/04/20 13:07:46;;;;;;;20.52;9.05;;;15.90;99.90;;;;;;5059343;28;20455;-84
2021/04/20 13:10:20;;;;;;;11.82;6.63;;;16.10;99.90;;;;;;5039079;28;20062;-74